sensor_id;sensor_type;location;lat;lon;timestamp;P1;durP1;ratioP1;P2;durP2;ratioP2
47483;SDS011;54076;50.322;18.650;2023-05-07T00:01:26;14.00;;;6.70;;
47483;SDS011;54076;50.322;18.650;2023-05-07T00:06:27;12.50;;;6.80;;
47483;SDS011;54076;50.322;18.650;2023-05-07T00:11:29;12.90;;;6.40;;
47483;SDS011;54076;50.322;18.650;2023-05-07T00:16:30;13.70;;;7.10;;
47483;SDS011;54076;50.322;18.650;2023-05-07T00:21:31;14.60;;;7.30;;
47483;SDS011;54076;50.322;18.650;2023-05-07T00:26:32;13.30;;;6.60;;
47483;SDS011;54076;50.322;18.650;2023-05-07T00:31:33;13.30;;;7.00;;
47483;SDS011;54076;50.322;18.650;2023-05-07T00:36:34;13.90;;;6.70;;
47483;SDS011;54076;50.322;18.650;2023-05-07T00:41:36;12.90;;;6.10;;
47483;SDS011;54076;50.322;18.650;2023-05-07T00:46:37;13.80;;;6.60;;
47483;SDS011;54076;50.322;18.650;2023-05-07T00:51:38;13.40;;;6.70;;
47483;SDS011;54076;50.322;18.650;2023-05-07T00:56:39;11.60;;;6.80;;
47483;SDS011;54076;50.322;18.650;2023-05-07T01:01:40;12.80;;;6.70;;
47483;SDS011;54076;50.322;18.650;2023-05-07T01:06:41;11.70;;;6.50;;
47483;SDS011;54076;50.322;18.650;2023-05-07T01:11:42;16.20;;;7.10;;
47483;SDS011;54076;50.322;18.650;2023-05-07T01:16:44;13.10;;;6.80;;
47483;SDS011;54076;50.322;18.650;2023-05-07T01:21:47;13.00;;;6.40;;
47483;SDS011;54076;50.322;18.650;2023-05-07T01:26:48;13.30;;;6.50;;
47483;SDS011;54076;50.322;18.650;2023-05-07T01:31:50;13.50;;;6.00;;
47483;SDS011;54076;50.322;18.650;2023-05-07T01:36:54;12.10;;;6.10;;
47483;SDS011;54076;50.322;18.650;2023-05-07T01:41:56;13.50;;;6.00;;
47483;SDS011;54076;50.322;18.650;2023-05-07T01:46:57;13.40;;;6.60;;
47483;SDS011;54076;50.322;18.650;2023-05-07T01:52:00;11.70;;;6.20;;
47483;SDS011;54076;50.322;18.650;2023-05-07T01:57:01;12.30;;;5.20;;
47483;SDS011;54076;50.322;18.650;2023-05-07T02:02:02;11.00;;;5.40;;
47483;SDS011;54076;50.322;18.650;2023-05-07T02:07:03;11.40;;;5.30;;
47483;SDS011;54076;50.322;18.650;2023-05-07T02:12:04;8.60;;;4.70;;
47483;SDS011;54076;50.322;18.650;2023-05-07T02:17:05;9.30;;;4.40;;
47483;SDS011;54076;50.322;18.650;2023-05-07T02:22:07;8.90;;;4.60;;
47483;SDS011;54076;50.322;18.650;2023-05-07T02:27:08;8.30;;;4.20;;
47483;SDS011;54076;50.322;18.650;2023-05-07T02:32:09;9.80;;;4.40;;
47483;SDS011;54076;50.322;18.650;2023-05-07T02:37:10;8.00;;;3.70;;
47483;SDS011;54076;50.322;18.650;2023-05-07T02:42:11;7.00;;;3.90;;
47483;SDS011;54076;50.322;18.650;2023-05-07T02:47:13;6.60;;;3.00;;
47483;SDS011;54076;50.322;18.650;2023-05-07T02:52:15;5.70;;;2.70;;
47483;SDS011;54076;50.322;18.650;2023-05-07T02:57:16;6.10;;;2.80;;
47483;SDS011;54076;50.322;18.650;2023-05-07T03:02:17;4.70;;;2.40;;
47483;SDS011;54076;50.322;18.650;2023-05-07T03:07:18;4.70;;;2.40;;
47483;SDS011;54076;50.322;18.650;2023-05-07T03:12:19;4.60;;;2.20;;
47483;SDS011;54076;50.322;18.650;2023-05-07T03:17:21;4.70;;;2.00;;
47483;SDS011;54076;50.322;18.650;2023-05-07T03:22:22;4.80;;;2.10;;
47483;SDS011;54076;50.322;18.650;2023-05-07T03:27:23;4.30;;;2.10;;
47483;SDS011;54076;50.322;18.650;2023-05-07T03:32:24;5.30;;;2.40;;
47483;SDS011;54076;50.322;18.650;2023-05-07T03:37:25;4.30;;;1.90;;
47483;SDS011;54076;50.322;18.650;2023-05-07T03:42:26;4.50;;;2.20;;
47483;SDS011;54076;50.322;18.650;2023-05-07T03:47:27;5.10;;;2.40;;
47483;SDS011;54076;50.322;18.650;2023-05-07T03:52:28;5.40;;;2.30;;
47483;SDS011;54076;50.322;18.650;2023-05-07T03:57:29;5.90;;;2.30;;
47483;SDS011;54076;50.322;18.650;2023-05-07T04:02:30;4.80;;;2.30;;
47483;SDS011;54076;50.322;18.650;2023-05-07T04:07:31;4.40;;;2.30;;
47483;SDS011;54076;50.322;18.650;2023-05-07T04:12:32;4.60;;;2.10;;
47483;SDS011;54076;50.322;18.650;2023-05-07T04:17:33;6.20;;;2.30;;
47483;SDS011;54076;50.322;18.650;2023-05-07T04:22:34;5.10;;;2.00;;
47483;SDS011;54076;50.322;18.650;2023-05-07T04:27:35;5.00;;;1.90;;
47483;SDS011;54076;50.322;18.650;2023-05-07T04:32:36;4.50;;;2.10;;
47483;SDS011;54076;50.322;18.650;2023-05-07T04:37:37;5.60;;;2.40;;
47483;SDS011;54076;50.322;18.650;2023-05-07T04:42:38;7.00;;;2.60;;
47483;SDS011;54076;50.322;18.650;2023-05-07T04:47:39;8.20;;;2.80;;
47483;SDS011;54076;50.322;18.650;2023-05-07T04:52:40;7.30;;;2.60;;
47483;SDS011;54076;50.322;18.650;2023-05-07T04:57:41;4.90;;;2.10;;
47483;SDS011;54076;50.322;18.650;2023-05-07T05:02:42;5.80;;;2.50;;
47483;SDS011;54076;50.322;18.650;2023-05-07T05:07:43;5.60;;;2.30;;
47483;SDS011;54076;50.322;18.650;2023-05-07T05:12:44;5.60;;;2.30;;
47483;SDS011;54076;50.322;18.650;2023-05-07T05:17:45;4.20;;;1.80;;
47483;SDS011;54076;50.322;18.650;2023-05-07T05:22:47;4.60;;;2.20;;
47483;SDS011;54076;50.322;18.650;2023-05-07T05:27:48;5.40;;;2.50;;
47483;SDS011;54076;50.322;18.650;2023-05-07T05:32:49;5.00;;;3.00;;
47483;SDS011;54076;50.322;18.650;2023-05-07T05:37:50;5.10;;;2.50;;
47483;SDS011;54076;50.322;18.650;2023-05-07T05:42:51;6.70;;;3.00;;
47483;SDS011;54076;50.322;18.650;2023-05-07T05:47:52;6.50;;;3.20;;
47483;SDS011;54076;50.322;18.650;2023-05-07T05:52:53;6.80;;;3.80;;
47483;SDS011;54076;50.322;18.650;2023-05-07T05:57:54;7.80;;;3.60;;
47483;SDS011;54076;50.322;18.650;2023-05-07T06:02:55;7.80;;;4.30;;
47483;SDS011;54076;50.322;18.650;2023-05-07T06:07:56;7.10;;;4.00;;
47483;SDS011;54076;50.322;18.650;2023-05-07T06:12:57;8.50;;;4.50;;
47483;SDS011;54076;50.322;18.650;2023-05-07T06:17:57;7.70;;;4.00;;
47483;SDS011;54076;50.322;18.650;2023-05-07T06:22:58;8.20;;;3.80;;
47483;SDS011;54076;50.322;18.650;2023-05-07T06:28:00;8.00;;;4.00;;
47483;SDS011;54076;50.322;18.650;2023-05-07T06:33:01;10.40;;;4.00;;
47483;SDS011;54076;50.322;18.650;2023-05-07T06:38:01;7.30;;;4.10;;
47483;SDS011;54076;50.322;18.650;2023-05-07T06:43:02;7.40;;;3.70;;
47483;SDS011;54076;50.322;18.650;2023-05-07T06:48:04;6.00;;;3.20;;
47483;SDS011;54076;50.322;18.650;2023-05-07T06:53:05;6.30;;;3.50;;
47483;SDS011;54076;50.322;18.650;2023-05-07T06:58:06;5.50;;;2.70;;
47483;SDS011;54076;50.322;18.650;2023-05-07T07:03:07;4.90;;;2.70;;
47483;SDS011;54076;50.322;18.650;2023-05-07T07:08:08;4.70;;;2.40;;
47483;SDS011;54076;50.322;18.650;2023-05-07T07:13:09;4.40;;;2.10;;
47483;SDS011;54076;50.322;18.650;2023-05-07T07:18:10;5.00;;;2.40;;
47483;SDS011;54076;50.322;18.650;2023-05-07T07:23:11;5.50;;;2.10;;
47483;SDS011;54076;50.322;18.650;2023-05-07T07:28:12;4.50;;;2.10;;
47483;SDS011;54076;50.322;18.650;2023-05-07T07:33:13;4.60;;;2.50;;
47483;SDS011;54076;50.322;18.650;2023-05-07T07:38:15;6.00;;;2.80;;
47483;SDS011;54076;50.322;18.650;2023-05-07T07:43:16;5.00;;;3.00;;
47483;SDS011;54076;50.322;18.650;2023-05-07T07:48:17;4.60;;;1.80;;
47483;SDS011;54076;50.322;18.650;2023-05-07T07:53:18;4.30;;;2.10;;
47483;SDS011;54076;50.322;18.650;2023-05-07T07:58:19;4.50;;;2.40;;
47483;SDS011;54076;50.322;18.650;2023-05-07T08:03:20;4.90;;;2.20;;
47483;SDS011;54076;50.322;18.650;2023-05-07T08:08:21;4.60;;;2.00;;
47483;SDS011;54076;50.322;18.650;2023-05-07T08:13:22;4.60;;;2.10;;
47483;SDS011;54076;50.322;18.650;2023-05-07T08:18:23;4.50;;;2.50;;
47483;SDS011;54076;50.322;18.650;2023-05-07T08:23:25;5.90;;;2.80;;
47483;SDS011;54076;50.322;18.650;2023-05-07T08:28:26;9.10;;;5.00;;
47483;SDS011;54076;50.322;18.650;2023-05-07T08:33:27;5.00;;;2.60;;
47483;SDS011;54076;50.322;18.650;2023-05-07T08:38:28;5.30;;;2.30;;
47483;SDS011;54076;50.322;18.650;2023-05-07T08:43:29;4.60;;;2.50;;
47483;SDS011;54076;50.322;18.650;2023-05-07T08:48:33;4.80;;;2.70;;
47483;SDS011;54076;50.322;18.650;2023-05-07T08:53:34;5.00;;;2.80;;
47483;SDS011;54076;50.322;18.650;2023-05-07T08:58:36;5.60;;;2.70;;
47483;SDS011;54076;50.322;18.650;2023-05-07T09:03:38;6.30;;;2.50;;
47483;SDS011;54076;50.322;18.650;2023-05-07T09:08:39;4.80;;;2.40;;
47483;SDS011;54076;50.322;18.650;2023-05-07T09:13:40;5.70;;;2.70;;
47483;SDS011;54076;50.322;18.650;2023-05-07T09:18:44;4.40;;;2.10;;
47483;SDS011;54076;50.322;18.650;2023-05-07T09:23:45;4.60;;;2.20;;
47483;SDS011;54076;50.322;18.650;2023-05-07T09:28:49;10.90;;;4.80;;
47483;SDS011;54076;50.322;18.650;2023-05-07T09:33:50;5.50;;;2.60;;
47483;SDS011;54076;50.322;18.650;2023-05-07T09:38:51;5.00;;;2.40;;
47483;SDS011;54076;50.322;18.650;2023-05-07T09:43:55;6.20;;;2.90;;
47483;SDS011;54076;50.322;18.650;2023-05-07T09:48:57;4.80;;;2.40;;
47483;SDS011;54076;50.322;18.650;2023-05-07T09:53:59;3.80;;;1.90;;
47483;SDS011;54076;50.322;18.650;2023-05-07T09:59:03;5.20;;;2.60;;
47483;SDS011;54076;50.322;18.650;2023-05-07T10:04:08;7.00;;;3.20;;
47483;SDS011;54076;50.322;18.650;2023-05-07T10:09:09;5.10;;;2.20;;
47483;SDS011;54076;50.322;18.650;2023-05-07T10:14:11;4.00;;;2.20;;
47483;SDS011;54076;50.322;18.650;2023-05-07T10:19:13;4.80;;;2.20;;
47483;SDS011;54076;50.322;18.650;2023-05-07T10:24:35;4.40;;;2.50;;
47483;SDS011;54076;50.322;18.650;2023-05-07T10:29:56;5.40;;;2.50;;
47483;SDS011;54076;50.322;18.650;2023-05-07T10:35:30;4.40;;;2.40;;
47483;SDS011;54076;50.322;18.650;2023-05-07T10:40:33;5.30;;;3.00;;
47483;SDS011;54076;50.322;18.650;2023-05-07T10:45:34;6.50;;;3.30;;
47483;SDS011;54076;50.322;18.650;2023-05-07T10:50:40;6.40;;;3.10;;
47483;SDS011;54076;50.322;18.650;2023-05-07T10:55:42;6.30;;;3.00;;
47483;SDS011;54076;50.322;18.650;2023-05-07T11:00:43;6.10;;;3.10;;
47483;SDS011;54076;50.322;18.650;2023-05-07T11:05:44;5.00;;;2.60;;
47483;SDS011;54076;50.322;18.650;2023-05-07T11:10:53;5.10;;;2.90;;
47483;SDS011;54076;50.322;18.650;2023-05-07T11:15:55;5.60;;;2.90;;
47483;SDS011;54076;50.322;18.650;2023-05-07T11:20:57;5.60;;;3.20;;
47483;SDS011;54076;50.322;18.650;2023-05-07T11:26:01;5.50;;;2.40;;
47483;SDS011;54076;50.322;18.650;2023-05-07T11:31:04;5.80;;;2.30;;
47483;SDS011;54076;50.322;18.650;2023-05-07T11:36:07;5.00;;;2.90;;
47483;SDS011;54076;50.322;18.650;2023-05-07T11:41:08;5.40;;;2.40;;
47483;SDS011;54076;50.322;18.650;2023-05-07T11:46:10;5.30;;;2.40;;
47483;SDS011;54076;50.322;18.650;2023-05-07T11:51:12;5.40;;;2.60;;
47483;SDS011;54076;50.322;18.650;2023-05-07T11:56:15;6.70;;;2.80;;
47483;SDS011;54076;50.322;18.650;2023-05-07T12:01:18;4.50;;;2.40;;
47483;SDS011;54076;50.322;18.650;2023-05-07T12:06:19;5.00;;;2.80;;
47483;SDS011;54076;50.322;18.650;2023-05-07T12:11:24;4.40;;;2.60;;
47483;SDS011;54076;50.322;18.650;2023-05-07T12:16:26;4.60;;;2.50;;
47483;SDS011;54076;50.322;18.650;2023-05-07T12:21:28;6.80;;;2.80;;
47483;SDS011;54076;50.322;18.650;2023-05-07T12:26:30;4.40;;;2.60;;
47483;SDS011;54076;50.322;18.650;2023-05-07T12:31:31;4.30;;;2.50;;
47483;SDS011;54076;50.322;18.650;2023-05-07T12:36:39;5.70;;;3.00;;
47483;SDS011;54076;50.322;18.650;2023-05-07T12:46:55;5.10;;;2.80;;
47483;SDS011;54076;50.322;18.650;2023-05-07T12:51:56;7.70;;;2.50;;
47483;SDS011;54076;50.322;18.650;2023-05-07T12:57:02;6.50;;;3.20;;
47483;SDS011;54076;50.322;18.650;2023-05-07T13:02:04;5.90;;;3.20;;
47483;SDS011;54076;50.322;18.650;2023-05-07T13:07:05;6.00;;;3.30;;
47483;SDS011;54076;50.322;18.650;2023-05-07T13:12:06;5.40;;;3.00;;
47483;SDS011;54076;50.322;18.650;2023-05-07T13:17:07;5.70;;;2.80;;
47483;SDS011;54076;50.322;18.650;2023-05-07T13:22:08;5.70;;;3.00;;
47483;SDS011;54076;50.322;18.650;2023-05-07T13:27:10;4.90;;;2.60;;
47483;SDS011;54076;50.322;18.650;2023-05-07T13:32:10;5.60;;;2.80;;
47483;SDS011;54076;50.322;18.650;2023-05-07T13:37:11;5.60;;;2.70;;
47483;SDS011;54076;50.322;18.650;2023-05-07T13:42:12;6.50;;;2.80;;
47483;SDS011;54076;50.322;18.650;2023-05-07T13:47:13;5.30;;;3.00;;
47483;SDS011;54076;50.322;18.650;2023-05-07T13:52:15;5.80;;;2.80;;
47483;SDS011;54076;50.322;18.650;2023-05-07T13:57:17;5.70;;;2.90;;
47483;SDS011;54076;50.322;18.650;2023-05-07T14:02:18;6.10;;;2.80;;
47483;SDS011;54076;50.322;18.650;2023-05-07T14:07:19;5.10;;;2.40;;
47483;SDS011;54076;50.322;18.650;2023-05-07T14:12:20;5.90;;;2.80;;
47483;SDS011;54076;50.322;18.650;2023-05-07T14:17:21;6.40;;;3.20;;
47483;SDS011;54076;50.322;18.650;2023-05-07T14:22:23;5.00;;;2.70;;
47483;SDS011;54076;50.322;18.650;2023-05-07T14:27:24;5.30;;;2.90;;
47483;SDS011;54076;50.322;18.650;2023-05-07T14:32:26;5.80;;;2.90;;
47483;SDS011;54076;50.322;18.650;2023-05-07T14:37:27;6.00;;;2.90;;
47483;SDS011;54076;50.322;18.650;2023-05-07T14:42:28;5.50;;;3.10;;
47483;SDS011;54076;50.322;18.650;2023-05-07T14:47:29;5.70;;;3.10;;
47483;SDS011;54076;50.322;18.650;2023-05-07T14:52:30;8.20;;;3.80;;
47483;SDS011;54076;50.322;18.650;2023-05-07T14:57:31;10.10;;;3.40;;
47483;SDS011;54076;50.322;18.650;2023-05-07T15:02:35;10.70;;;4.80;;
47483;SDS011;54076;50.322;18.650;2023-05-07T15:07:36;5.90;;;3.00;;
47483;SDS011;54076;50.322;18.650;2023-05-07T15:12:37;6.30;;;3.10;;
47483;SDS011;54076;50.322;18.650;2023-05-07T15:17:38;7.10;;;3.20;;
47483;SDS011;54076;50.322;18.650;2023-05-07T15:22:39;6.60;;;3.30;;
47483;SDS011;54076;50.322;18.650;2023-05-07T15:27:42;5.70;;;3.40;;
47483;SDS011;54076;50.322;18.650;2023-05-07T15:32:43;6.20;;;3.50;;
47483;SDS011;54076;50.322;18.650;2023-05-07T15:37:44;9.10;;;4.30;;
47483;SDS011;54076;50.322;18.650;2023-05-07T15:42:45;7.40;;;4.00;;
47483;SDS011;54076;50.322;18.650;2023-05-07T15:47:47;6.40;;;3.70;;
47483;SDS011;54076;50.322;18.650;2023-05-07T15:52:48;7.00;;;3.70;;
47483;SDS011;54076;50.322;18.650;2023-05-07T15:57:48;7.50;;;4.20;;
47483;SDS011;54076;50.322;18.650;2023-05-07T16:02:49;7.60;;;3.90;;
47483;SDS011;54076;50.322;18.650;2023-05-07T16:07:51;7.00;;;4.10;;
47483;SDS011;54076;50.322;18.650;2023-05-07T16:12:52;7.60;;;3.90;;
47483;SDS011;54076;50.322;18.650;2023-05-07T16:17:53;8.30;;;4.40;;
47483;SDS011;54076;50.322;18.650;2023-05-07T16:22:57;7.40;;;4.30;;
47483;SDS011;54076;50.322;18.650;2023-05-07T16:27:58;8.30;;;4.80;;
47483;SDS011;54076;50.322;18.650;2023-05-07T16:32:59;8.50;;;4.40;;
47483;SDS011;54076;50.322;18.650;2023-05-07T16:38:00;8.70;;;4.60;;
47483;SDS011;54076;50.322;18.650;2023-05-07T16:43:01;8.10;;;4.50;;
47483;SDS011;54076;50.322;18.650;2023-05-07T16:48:03;7.90;;;4.60;;
47483;SDS011;54076;50.322;18.650;2023-05-07T16:53:05;8.20;;;4.30;;
47483;SDS011;54076;50.322;18.650;2023-05-07T16:58:08;9.40;;;4.30;;
47483;SDS011;54076;50.322;18.650;2023-05-07T17:03:10;11.30;;;4.10;;
47483;SDS011;54076;50.322;18.650;2023-05-07T17:08:11;8.80;;;4.60;;
47483;SDS011;54076;50.322;18.650;2023-05-07T17:13:13;7.80;;;4.40;;
47483;SDS011;54076;50.322;18.650;2023-05-07T17:18:14;7.80;;;4.10;;
47483;SDS011;54076;50.322;18.650;2023-05-07T17:23:15;8.40;;;4.30;;
47483;SDS011;54076;50.322;18.650;2023-05-07T17:28:16;7.50;;;3.90;;
47483;SDS011;54076;50.322;18.650;2023-05-07T17:33:17;8.10;;;4.20;;
47483;SDS011;54076;50.322;18.650;2023-05-07T17:38:18;9.30;;;4.60;;
47483;SDS011;54076;50.322;18.650;2023-05-07T17:43:19;9.20;;;4.80;;
47483;SDS011;54076;50.322;18.650;2023-05-07T17:48:22;10.20;;;5.40;;
47483;SDS011;54076;50.322;18.650;2023-05-07T17:53:24;8.40;;;4.20;;
47483;SDS011;54076;50.322;18.650;2023-05-07T17:58:26;17.40;;;8.20;;
47483;SDS011;54076;50.322;18.650;2023-05-07T18:03:27;8.70;;;5.00;;
47483;SDS011;54076;50.322;18.650;2023-05-07T18:08:30;9.20;;;4.70;;
47483;SDS011;54076;50.322;18.650;2023-05-07T18:13:31;8.70;;;3.90;;
47483;SDS011;54076;50.322;18.650;2023-05-07T18:18:32;8.70;;;4.30;;
47483;SDS011;54076;50.322;18.650;2023-05-07T18:23:34;8.30;;;4.20;;
47483;SDS011;54076;50.322;18.650;2023-05-07T18:28:36;10.40;;;4.40;;
47483;SDS011;54076;50.322;18.650;2023-05-07T18:33:37;8.10;;;4.20;;
47483;SDS011;54076;50.322;18.650;2023-05-07T18:38:38;8.30;;;4.20;;
47483;SDS011;54076;50.322;18.650;2023-05-07T18:43:42;7.60;;;3.90;;
47483;SDS011;54076;50.322;18.650;2023-05-07T18:48:43;6.50;;;3.50;;
47483;SDS011;54076;50.322;18.650;2023-05-07T18:53:43;7.50;;;3.40;;
47483;SDS011;54076;50.322;18.650;2023-05-07T18:58:44;8.40;;;4.20;;
47483;SDS011;54076;50.322;18.650;2023-05-07T19:03:45;7.30;;;3.40;;
47483;SDS011;54076;50.322;18.650;2023-05-07T19:08:46;7.30;;;3.90;;
47483;SDS011;54076;50.322;18.650;2023-05-07T19:13:47;7.00;;;3.30;;
47483;SDS011;54076;50.322;18.650;2023-05-07T19:18:49;7.70;;;3.50;;
47483;SDS011;54076;50.322;18.650;2023-05-07T19:23:50;7.20;;;3.20;;
47483;SDS011;54076;50.322;18.650;2023-05-07T19:28:53;9.70;;;3.70;;
47483;SDS011;54076;50.322;18.650;2023-05-07T19:33:54;6.80;;;3.40;;
47483;SDS011;54076;50.322;18.650;2023-05-07T19:38:55;7.80;;;4.00;;
47483;SDS011;54076;50.322;18.650;2023-05-07T19:43:56;7.80;;;3.60;;
47483;SDS011;54076;50.322;18.650;2023-05-07T19:48:57;8.10;;;4.10;;
47483;SDS011;54076;50.322;18.650;2023-05-07T19:53:58;7.50;;;3.60;;
47483;SDS011;54076;50.322;18.650;2023-05-07T19:58:59;8.90;;;3.70;;
47483;SDS011;54076;50.322;18.650;2023-05-07T20:04:00;8.10;;;4.00;;
47483;SDS011;54076;50.322;18.650;2023-05-07T20:09:01;7.50;;;4.10;;
47483;SDS011;54076;50.322;18.650;2023-05-07T20:14:03;9.30;;;3.80;;
47483;SDS011;54076;50.322;18.650;2023-05-07T20:19:05;7.60;;;4.00;;
47483;SDS011;54076;50.322;18.650;2023-05-07T20:24:06;6.90;;;3.40;;
47483;SDS011;54076;50.322;18.650;2023-05-07T20:29:07;7.80;;;3.60;;
47483;SDS011;54076;50.322;18.650;2023-05-07T20:34:08;6.20;;;3.30;;
47483;SDS011;54076;50.322;18.650;2023-05-07T20:39:10;8.90;;;4.10;;
47483;SDS011;54076;50.322;18.650;2023-05-07T20:44:14;8.00;;;4.00;;
47483;SDS011;54076;50.322;18.650;2023-05-07T20:49:16;7.40;;;3.60;;
47483;SDS011;54076;50.322;18.650;2023-05-07T20:54:17;7.60;;;3.60;;
47483;SDS011;54076;50.322;18.650;2023-05-07T20:59:18;7.50;;;3.50;;
47483;SDS011;54076;50.322;18.650;2023-05-07T21:04:19;6.40;;;3.40;;
47483;SDS011;54076;50.322;18.650;2023-05-07T21:09:20;9.50;;;3.90;;
47483;SDS011;54076;50.322;18.650;2023-05-07T21:14:21;7.70;;;3.80;;
47483;SDS011;54076;50.322;18.650;2023-05-07T21:19:22;6.10;;;3.30;;
47483;SDS011;54076;50.322;18.650;2023-05-07T21:24:23;6.20;;;3.40;;
47483;SDS011;54076;50.322;18.650;2023-05-07T21:29:25;8.00;;;4.10;;
47483;SDS011;54076;50.322;18.650;2023-05-07T21:34:26;7.30;;;3.40;;
47483;SDS011;54076;50.322;18.650;2023-05-07T21:39:27;6.80;;;3.70;;
47483;SDS011;54076;50.322;18.650;2023-05-07T21:44:30;7.30;;;3.90;;
47483;SDS011;54076;50.322;18.650;2023-05-07T21:49:31;7.30;;;3.80;;
47483;SDS011;54076;50.322;18.650;2023-05-07T21:54:32;6.80;;;3.90;;
47483;SDS011;54076;50.322;18.650;2023-05-07T21:59:33;8.60;;;4.00;;
47483;SDS011;54076;50.322;18.650;2023-05-07T22:04:34;8.30;;;3.60;;
47483;SDS011;54076;50.322;18.650;2023-05-07T22:09:35;9.10;;;4.00;;
47483;SDS011;54076;50.322;18.650;2023-05-07T22:14:36;7.90;;;4.20;;
47483;SDS011;54076;50.322;18.650;2023-05-07T22:19:37;9.40;;;4.40;;
47483;SDS011;54076;50.322;18.650;2023-05-07T22:24:38;8.40;;;4.30;;
47483;SDS011;54076;50.322;18.650;2023-05-07T22:29:39;8.10;;;3.80;;
47483;SDS011;54076;50.322;18.650;2023-05-07T22:34:40;8.10;;;4.00;;
47483;SDS011;54076;50.322;18.650;2023-05-07T22:39:41;8.40;;;4.20;;
47483;SDS011;54076;50.322;18.650;2023-05-07T22:44:42;9.10;;;3.90;;
47483;SDS011;54076;50.322;18.650;2023-05-07T22:49:43;9.00;;;4.50;;
47483;SDS011;54076;50.322;18.650;2023-05-07T22:54:44;7.10;;;3.80;;
47483;SDS011;54076;50.322;18.650;2023-05-07T22:59:45;8.50;;;4.60;;
47483;SDS011;54076;50.322;18.650;2023-05-07T23:04:46;7.60;;;4.10;;
47483;SDS011;54076;50.322;18.650;2023-05-07T23:09:47;7.30;;;4.00;;
47483;SDS011;54076;50.322;18.650;2023-05-07T23:14:48;8.20;;;4.10;;
47483;SDS011;54076;50.322;18.650;2023-05-07T23:19:49;7.70;;;4.30;;
47483;SDS011;54076;50.322;18.650;2023-05-07T23:24:50;8.60;;;4.30;;
47483;SDS011;54076;50.322;18.650;2023-05-07T23:29:51;7.80;;;4.10;;
47483;SDS011;54076;50.322;18.650;2023-05-07T23:34:52;8.10;;;4.10;;
47483;SDS011;54076;50.322;18.650;2023-05-07T23:39:55;8.80;;;4.20;;
47483;SDS011;54076;50.322;18.650;2023-05-07T23:44:56;10.10;;;4.70;;
47483;SDS011;54076;50.322;18.650;2023-05-07T23:49:57;10.70;;;4.80;;
47483;SDS011;54076;50.322;18.650;2023-05-07T23:54:58;8.40;;;5.00;;
47483;SDS011;54076;50.322;18.650;2023-05-07T23:59:59;10.20;;;5.00;;
